createdAt,value
2019-02-10T00:00:43.457Z,76.30
2019-02-10T00:03:11.900Z,76.20
2019-02-10T00:05:40.328Z,76.50
2019-02-10T00:08:08.857Z,76.70
2019-02-10T00:10:37.318Z,76.80
2019-02-10T00:13:26.254Z,77.20
2019-02-10T00:15:55.533Z,77.40
2019-02-10T00:18:24.158Z,77.70
2019-02-10T00:20:52.578Z,77.70
2019-02-10T00:23:21.053Z,78.00
2019-02-10T00:25:49.488Z,78.30
2019-02-10T00:28:18.042Z,78.50
2019-02-10T00:30:46.560Z,78.20
2019-02-10T00:33:15.153Z,78.50
2019-02-10T00:35:43.566Z,78.80
2019-02-10T00:38:12.094Z,78.70
2019-02-10T00:40:40.544Z,78.70
2019-02-10T00:43:08.977Z,78.20
2019-02-10T00:45:37.399Z,77.90
2019-02-10T00:48:05.853Z,77.80
2019-02-10T00:50:34.274Z,77.60
2019-02-10T00:53:02.858Z,77.60
2019-02-10T00:55:31.298Z,78.00
2019-02-10T00:57:59.816Z,77.90
2019-02-10T01:00:29.768Z,78.20
2019-02-10T01:02:58.197Z,78.00
2019-02-10T01:05:26.617Z,77.90
2019-02-10T01:07:55.140Z,78.00
2019-02-10T01:10:25.577Z,78.00
2019-02-10T01:12:54.332Z,78.50
2019-02-10T01:15:22.761Z,78.20
2019-02-10T01:17:51.287Z,78.30
2019-02-10T01:20:19.705Z,78.60
2019-02-10T01:22:48.208Z,78.70
2019-02-10T01:25:16.730Z,78.70
2019-02-10T01:27:45.157Z,79.00
2019-02-10T01:30:15.188Z,79.20
2019-02-10T01:32:43.671Z,79.00
2019-02-10T01:35:12.345Z,79.00
2019-02-10T01:37:40.788Z,78.90
2019-02-10T01:40:10.558Z,79.00
2019-02-10T01:42:39.043Z,79.30
2019-02-10T01:45:10.135Z,79.10
2019-02-10T01:47:38.566Z,79.40
2019-02-10T01:50:11.114Z,79.30
2019-02-10T01:52:39.591Z,79.30
2019-02-10T01:55:12.530Z,79.40
2019-02-10T01:57:41.006Z,79.40
2019-02-10T02:00:12.372Z,79.40
2019-02-10T02:02:40.797Z,79.30
2019-02-10T02:05:10.716Z,79.40
2019-02-10T02:07:39.195Z,79.50
2019-02-10T02:10:11.621Z,79.60
2019-02-10T02:12:40.161Z,79.40
2019-02-10T02:15:11.318Z,79.30
2019-02-10T02:17:39.793Z,79.40
2019-02-10T02:20:09.794Z,79.30
2019-02-10T02:22:39.882Z,79.20
2019-02-10T02:25:12.578Z,79.10
2019-02-10T02:27:41.183Z,79.30
2019-02-10T02:30:12.146Z,79.30
2019-02-10T02:32:40.556Z,79.10
2019-02-10T02:35:09.067Z,79.10
2019-02-10T02:37:37.495Z,79.60
2019-02-10T02:40:08.365Z,79.60
2019-02-10T02:42:36.806Z,79.60
2019-02-10T02:45:07.948Z,79.50
2019-02-10T02:47:36.381Z,79.70
2019-02-10T02:50:06.053Z,79.90
2019-02-10T02:52:34.483Z,79.80
2019-02-10T02:55:03.038Z,80.10
2019-02-10T02:57:31.468Z,80.00
2019-02-10T02:59:59.875Z,80.10
2019-02-10T03:02:29.213Z,80.50
2019-02-10T03:04:58.197Z,80.40
2019-02-10T03:07:26.629Z,80.30
2019-02-10T03:09:55.049Z,80.30
2019-02-10T03:12:23.485Z,80.40
2019-02-10T03:14:51.908Z,80.50
2019-02-10T03:17:20.350Z,80.60
2019-02-10T03:19:48.833Z,80.80
2019-02-10T03:22:17.292Z,80.80
2019-02-10T03:24:45.838Z,80.90
2019-02-10T03:27:14.290Z,80.90
2019-02-10T03:29:42.697Z,81.00
2019-02-10T03:32:11.114Z,81.00
2019-02-10T03:34:39.560Z,81.10
2019-02-10T03:37:08.004Z,81.90
2019-02-10T03:39:36.430Z,81.20
2019-02-10T03:42:04.908Z,81.40
2019-02-10T03:44:33.336Z,81.60
2019-02-10T03:47:01.768Z,81.90
2019-02-10T03:49:30.202Z,82.20
2019-02-10T03:51:58.698Z,82.10
2019-02-10T03:54:27.260Z,82.10
2019-02-10T03:56:55.689Z,82.20
2019-02-10T03:59:24.150Z,82.20
2019-02-10T04:01:52.621Z,82.20
2019-02-10T04:04:21.066Z,82.20
2019-02-10T04:06:49.469Z,82.30
2019-02-10T04:09:17.924Z,82.20
2019-02-10T04:11:46.316Z,82.30
2019-02-10T04:14:14.759Z,82.30
2019-02-10T04:16:43.227Z,82.40
2019-02-10T04:19:11.665Z,82.60
2019-02-10T04:21:40.058Z,83.50
2019-02-10T04:24:08.514Z,82.60
2019-02-10T04:26:36.919Z,82.90
2019-02-10T04:29:05.403Z,83.10
2019-02-10T04:31:33.829Z,83.00
2019-02-10T04:34:02.240Z,82.80
2019-02-10T04:36:30.681Z,82.80
2019-02-10T04:38:59.093Z,82.50
2019-02-10T04:41:27.528Z,82.50
2019-02-10T04:43:55.937Z,82.60
2019-02-10T04:46:24.373Z,82.80
2019-02-10T04:48:52.783Z,82.50
2019-02-10T04:51:21.220Z,82.70
2019-02-10T04:53:49.642Z,82.50
2019-02-10T04:56:18.145Z,82.40
2019-02-10T04:58:46.572Z,82.40
2019-02-10T05:01:18.823Z,82.40
2019-02-10T05:03:47.256Z,82.60
2019-02-10T05:06:18.718Z,82.80
2019-02-10T05:08:47.190Z,82.70
2019-02-10T05:11:15.664Z,82.60
2019-02-10T05:13:44.085Z,82.70
2019-02-10T05:16:13.540Z,82.60
2019-02-10T05:18:41.937Z,82.60
2019-02-10T05:21:10.342Z,82.60
2019-02-10T05:23:38.773Z,82.60
2019-02-10T05:26:07.186Z,82.50
2019-02-10T05:28:35.627Z,82.60
2019-02-10T05:31:04.032Z,82.70
2019-02-10T05:33:32.456Z,82.60
2019-02-10T05:36:00.873Z,82.60
2019-02-10T05:38:29.342Z,82.80
2019-02-10T05:40:57.754Z,82.70
2019-02-10T05:43:26.184Z,82.90
2019-02-10T05:45:54.608Z,82.90
2019-02-10T05:48:23.036Z,83.10
2019-02-10T05:50:51.461Z,83.10
2019-02-10T05:53:19.885Z,83.10
2019-02-10T05:55:48.327Z,83.10
2019-02-10T05:58:16.721Z,83.00
2019-02-10T06:00:45.157Z,82.80
2019-02-10T06:03:13.580Z,82.90
2019-02-10T06:05:41.994Z,82.80
2019-02-10T06:08:13.583Z,82.90
2019-02-10T06:10:40.549Z,82.90
2019-02-10T06:13:08.971Z,82.60
2019-02-10T06:15:37.401Z,82.50
2019-02-10T06:18:05.812Z,82.40
2019-02-10T06:20:34.250Z,82.20
2019-02-10T06:23:02.671Z,82.20
2019-02-10T06:25:31.122Z,82.20
2019-02-10T06:27:59.570Z,82.10
2019-02-10T06:30:28.040Z,82.20
2019-02-10T06:32:56.448Z,82.10
2019-02-10T06:35:24.884Z,82.10
2019-02-10T06:37:53.310Z,82.10
2019-02-10T06:40:21.727Z,82.10
2019-02-10T06:42:50.134Z,82.00
2019-02-10T06:45:18.574Z,82.10
2019-02-10T06:47:46.995Z,82.00
2019-02-10T06:50:15.441Z,81.80
2019-02-10T06:52:43.908Z,81.80
2019-02-10T06:55:12.340Z,81.50
2019-02-10T06:57:40.779Z,81.60
2019-02-10T07:00:28.379Z,81.40
2019-02-10T07:03:32.757Z,81.20
2019-02-10T07:06:01.249Z,81.20
2019-02-10T07:08:30.881Z,81.10
2019-02-10T07:10:59.356Z,80.90
2019-02-10T07:13:30.880Z,80.60
2019-02-10T07:16:18.867Z,80.80
2019-02-10T07:19:23.352Z,80.70
2019-02-10T07:21:51.779Z,80.40
2019-02-10T07:24:31.285Z,80.30
2019-02-10T07:27:08.982Z,80.00
2019-02-10T07:30:04.496Z,79.70
2019-02-10T07:32:41.978Z,79.50
2019-02-10T07:35:19.464Z,79.20
2019-02-10T07:37:54.325Z,79.00
2019-02-10T07:40:31.677Z,78.80
2019-02-10T07:43:11.974Z,78.40
2019-02-10T07:45:45.961Z,78.20
2019-02-10T07:48:17.480Z,78.20
2019-02-10T07:50:54.821Z,78.20
2019-02-10T07:53:44.430Z,78.10
2019-02-10T07:56:33.126Z,77.90
2019-02-10T07:59:10.540Z,78.00
2019-02-10T08:02:02.952Z,77.40
2019-02-10T08:04:37.389Z,77.10
2019-02-10T08:07:11.584Z,76.40
2019-02-10T08:09:51.932Z,76.50
2019-02-10T08:12:38.529Z,76.20
2019-02-10T08:15:21.186Z,76.00
2019-02-10T08:18:01.449Z,75.90
2019-02-10T08:20:38.597Z,75.90
2019-02-10T08:23:10.076Z,75.90
2019-02-10T08:25:47.461Z,75.80
2019-02-10T08:28:24.944Z,75.90
2019-02-10T08:30:59.293Z,75.80
2019-02-10T08:33:36.783Z,75.30
2019-02-10T08:36:26.161Z,75.00
2019-02-10T08:39:18.685Z,74.90
2019-02-10T08:41:55.361Z,75.00
2019-02-10T08:44:29.627Z,74.80
2019-02-10T08:47:01.182Z,74.70
2019-02-10T08:50:01.185Z,74.50
2019-02-10T08:52:35.695Z,73.90
2019-02-10T08:55:05.172Z,74.30
2019-02-10T08:57:33.620Z,73.50
2019-02-10T09:00:03.673Z,73.90
2019-02-10T09:02:32.104Z,73.70
2019-02-10T09:05:00.637Z,73.40
2019-02-10T09:07:29.099Z,73.30
2019-02-10T09:09:57.498Z,73.30
2019-02-10T09:12:25.953Z,73.20
2019-02-10T09:14:54.363Z,73.20
2019-02-10T09:17:22.895Z,73.30
2019-02-10T09:19:51.326Z,73.10
2019-02-10T09:22:19.858Z,73.00
2019-02-10T09:24:48.271Z,73.00
2019-02-10T09:27:16.726Z,71.60
2019-02-10T09:29:45.153Z,71.40
2019-02-10T09:32:13.608Z,71.40
2019-02-10T09:34:42.043Z,71.50
2019-02-10T09:37:10.489Z,71.40
2019-02-10T09:39:38.933Z,71.10
2019-02-10T09:42:07.468Z,70.80
2019-02-10T09:44:37.098Z,70.60
2019-02-10T09:47:05.572Z,70.50
2019-02-10T09:49:34.009Z,70.20
2019-02-10T09:52:02.440Z,70.40
2019-02-10T09:54:30.880Z,69.80
2019-02-10T09:56:59.341Z,69.00
2019-02-10T09:59:27.793Z,68.80
2019-02-10T10:01:56.300Z,68.00
2019-02-10T10:04:24.825Z,67.90
2019-02-10T10:06:53.312Z,66.90
2019-02-10T10:09:21.815Z,66.80
2019-02-10T10:11:50.218Z,66.60
2019-02-10T10:14:19.771Z,66.50
2019-02-10T10:16:48.871Z,66.20
2019-02-10T10:19:17.372Z,65.60
2019-02-10T10:21:45.821Z,65.00
2019-02-10T10:24:14.265Z,64.50
2019-02-10T10:26:42.714Z,63.80
2019-02-10T10:29:11.164Z,62.70
2019-02-10T10:31:39.579Z,63.20
2019-02-10T10:34:08.053Z,62.40
2019-02-10T10:36:36.470Z,61.80
2019-02-10T10:39:05.870Z,61.70
2019-02-10T10:41:34.386Z,62.00
2019-02-10T10:44:02.880Z,62.20
2019-02-10T10:46:31.309Z,61.30
2019-02-10T10:48:59.793Z,61.50
2019-02-10T10:51:28.347Z,61.10
2019-02-10T10:53:56.797Z,60.90
2019-02-10T10:56:25.242Z,60.70
2019-02-10T10:58:53.669Z,59.60
2019-02-10T11:01:25.428Z,58.30
2019-02-10T11:03:52.405Z,57.20
2019-02-10T11:06:20.926Z,57.50
2019-02-10T11:08:49.363Z,57.30
2019-02-10T11:11:17.796Z,57.20
2019-02-10T11:13:46.235Z,57.50
2019-02-10T11:16:15.449Z,57.10
2019-02-10T11:18:43.856Z,57.10
2019-02-10T11:21:13.649Z,57.40
2019-02-10T11:23:42.641Z,57.10
2019-02-10T11:26:11.240Z,56.80
2019-02-10T11:28:39.709Z,56.70
2019-02-10T11:31:08.196Z,56.40
2019-02-10T11:33:38.149Z,56.50
2019-02-10T11:36:06.593Z,56.00
2019-02-10T11:38:35.047Z,55.90
2019-02-10T11:41:03.514Z,56.00
2019-02-10T11:43:31.943Z,55.70
2019-02-10T11:46:00.858Z,55.70
2019-02-10T11:48:29.304Z,55.30
2019-02-10T11:50:57.777Z,54.60
2019-02-10T11:53:26.328Z,54.70
2019-02-10T11:55:54.897Z,54.70
2019-02-10T11:58:23.529Z,54.90
2019-02-10T12:00:52.044Z,54.90
2019-02-10T12:03:20.640Z,54.90
2019-02-10T12:05:49.070Z,55.00
2019-02-10T12:08:17.524Z,54.60
2019-02-10T12:10:45.961Z,54.70
2019-02-10T12:13:14.426Z,54.90
2019-02-10T12:15:42.870Z,54.80
2019-02-10T12:18:11.371Z,55.20
2019-02-10T12:20:39.823Z,55.50
2019-02-10T12:23:08.400Z,55.60
2019-02-10T12:25:36.837Z,55.90
2019-02-10T12:28:05.787Z,55.90
2019-02-10T12:30:34.199Z,55.70
2019-02-10T12:33:04.317Z,56.20
2019-02-10T12:35:32.819Z,56.60
2019-02-10T12:38:01.377Z,56.30
2019-02-10T12:40:29.825Z,56.40
2019-02-10T12:42:58.423Z,56.20
2019-02-10T12:45:26.931Z,56.10
2019-02-10T12:47:55.410Z,56.30
2019-02-10T12:50:23.889Z,56.20
2019-02-10T12:52:52.386Z,56.60
2019-02-10T12:55:20.828Z,57.70
2019-02-10T12:57:49.286Z,58.50
2019-02-10T13:00:20.914Z,59.40
2019-02-10T13:02:49.417Z,59.50
2019-02-10T13:05:17.960Z,59.90
2019-02-10T13:07:46.366Z,62.20
2019-02-10T13:10:18.209Z,64.50
2019-02-10T13:12:46.187Z,66.40
2019-02-10T13:15:15.881Z,68.60
2019-02-10T13:17:44.455Z,69.00
2019-02-10T13:20:15.971Z,70.60
2019-02-10T13:22:44.396Z,73.10
2019-02-10T13:25:14.917Z,74.20
2019-02-10T13:27:43.579Z,75.30
2019-02-10T13:30:16.675Z,77.20
2019-02-10T13:32:45.184Z,79.00
2019-02-10T13:35:13.713Z,80.30
2019-02-10T13:37:42.153Z,81.30
2019-02-10T13:40:16.609Z,82.30
2019-02-10T13:42:44.148Z,82.90
2019-02-10T13:45:12.751Z,83.80
2019-02-10T13:47:41.239Z,84.60
2019-02-10T13:50:19.352Z,85.70
2019-02-10T13:52:47.825Z,86.00
2019-02-10T13:55:16.781Z,86.80
2019-02-10T13:57:45.329Z,87.30
2019-02-10T14:00:22.484Z,86.90
2019-02-10T14:02:50.963Z,87.80
2019-02-10T14:05:19.460Z,88.20
2019-02-10T14:07:50.883Z,88.40
2019-02-10T14:10:25.180Z,89.50
2019-02-10T14:12:49.694Z,88.70
2019-02-10T14:15:19.264Z,88.40
2019-02-10T14:17:47.893Z,88.50
2019-02-10T14:20:18.312Z,88.30
2019-02-10T14:22:46.785Z,88.70
2019-02-10T14:25:15.492Z,89.50
2019-02-10T14:27:44.128Z,89.30
2019-02-10T14:30:25.081Z,90.20
2019-02-10T14:32:53.605Z,90.10
2019-02-10T14:35:22.102Z,90.40
2019-02-10T14:37:50.622Z,90.60
2019-02-10T14:40:19.075Z,90.90
2019-02-10T14:42:47.534Z,91.30
2019-02-10T14:45:17.274Z,91.40
2019-02-10T14:47:45.755Z,91.60
2019-02-10T14:50:17.956Z,91.70
2019-02-10T14:52:46.496Z,91.80
2019-02-10T14:55:14.947Z,92.00
2019-02-10T14:57:44.241Z,92.50
2019-02-10T15:00:17.039Z,92.60
2019-02-10T15:02:45.497Z,92.70
2019-02-10T15:05:14.096Z,92.90
2019-02-10T15:07:42.690Z,92.70
2019-02-10T15:10:19.087Z,93.00
2019-02-10T15:12:47.530Z,92.70
2019-02-10T15:15:16.126Z,92.90
2019-02-10T15:17:44.562Z,93.10
2019-02-10T15:20:13.611Z,93.00
2019-02-10T15:22:42.064Z,93.30
2019-02-10T15:25:11.840Z,93.50
2019-02-10T15:27:40.365Z,93.80
2019-02-10T15:30:11.477Z,94.00
2019-02-10T15:32:40.007Z,94.40
2019-02-10T15:35:08.577Z,94.20
2019-02-10T15:37:38.632Z,94.50
2019-02-10T15:40:09.846Z,94.70
2019-02-10T15:42:38.454Z,95.20
2019-02-10T15:45:10.014Z,95.40
2019-02-10T15:47:38.450Z,95.70
2019-02-10T15:50:10.014Z,95.80
2019-02-10T15:52:38.457Z,96.20
2019-02-10T15:55:09.504Z,96.40
2019-02-10T15:57:37.984Z,96.40
2019-02-10T16:00:12.824Z,96.50
2019-02-10T16:02:41.434Z,96.50
2019-02-10T16:05:10.009Z,96.60
2019-02-10T16:07:38.617Z,96.70
2019-02-10T16:10:09.986Z,96.40
2019-02-10T16:12:38.611Z,96.60
2019-02-10T16:15:09.390Z,96.80
2019-02-10T16:17:38.017Z,95.20
2019-02-10T16:20:12.067Z,94.70
2019-02-10T16:22:40.641Z,94.50
2019-02-10T16:25:09.648Z,94.90
2019-02-10T16:27:38.127Z,95.10
2019-02-10T16:30:12.740Z,96.30
2019-02-10T16:32:49.355Z,96.00
2019-02-10T16:35:11.653Z,96.20
2019-02-10T16:37:40.337Z,96.50
2019-02-10T16:40:14.215Z,96.40
2019-02-10T16:42:42.752Z,96.50
2019-02-10T16:45:12.354Z,96.50
2019-02-10T16:47:41.024Z,97.30
2019-02-10T16:50:11.814Z,97.50
2019-02-10T16:52:40.365Z,97.50
2019-02-10T16:55:11.434Z,97.20
2019-02-10T16:57:40.036Z,96.50
2019-02-10T17:00:11.788Z,96.30
2019-02-10T17:02:40.280Z,95.20
2019-02-10T17:05:08.781Z,94.80
2019-02-10T17:07:37.271Z,94.70
2019-02-10T17:10:11.087Z,94.90
2019-02-10T17:12:40.632Z,94.60
2019-02-10T17:15:11.102Z,94.70
2019-02-10T17:17:39.549Z,94.50
2019-02-10T17:20:10.777Z,94.80
2019-02-10T17:22:39.576Z,94.90
2019-02-10T17:25:14.061Z,95.30
2019-02-10T17:27:42.497Z,95.10
2019-02-10T17:30:15.421Z,95.30
2019-02-10T17:32:44.009Z,95.00
2019-02-10T17:35:13.787Z,95.00
2019-02-10T17:37:42.235Z,94.50
2019-02-10T17:40:19.835Z,94.90
2019-02-10T17:42:48.387Z,94.80
2019-02-10T17:45:16.966Z,95.80
2019-02-10T17:47:45.539Z,95.50
2019-02-10T17:50:14.193Z,94.60
2019-02-10T17:52:42.634Z,94.60
2019-02-10T17:55:11.531Z,95.00
2019-02-10T17:57:39.978Z,94.70
2019-02-10T18:00:17.255Z,94.30
2019-02-10T18:02:45.760Z,94.30
2019-02-10T18:05:14.274Z,93.80
2019-02-10T18:07:42.761Z,92.90
2019-02-10T18:10:15.223Z,93.00
2019-02-10T18:12:43.725Z,92.70
2019-02-10T18:15:14.115Z,92.80
2019-02-10T18:17:46.961Z,92.60
2019-02-10T18:20:19.809Z,92.40
2019-02-10T18:23:04.724Z,92.20
2019-02-10T18:25:37.221Z,91.70
2019-02-10T18:28:16.145Z,91.80
2019-02-10T18:30:48.925Z,91.80
2019-02-10T18:33:27.781Z,91.80
2019-02-10T18:36:15.770Z,91.30
2019-02-10T18:38:48.585Z,90.90
2019-02-10T18:41:18.816Z,90.40
2019-02-10T18:43:58.013Z,90.30
2019-02-10T18:46:43.919Z,89.40
2019-02-10T18:49:16.955Z,89.10
2019-02-10T18:51:59.127Z,88.30
2019-02-10T18:54:45.179Z,88.80
2019-02-10T18:57:16.340Z,88.10
2019-02-10T19:00:02.574Z,88.40
2019-02-10T19:02:44.630Z,87.80
2019-02-10T19:05:20.402Z,87.80
2019-02-10T19:07:56.343Z,87.70
2019-02-10T19:10:42.623Z,87.90
2019-02-10T19:13:29.174Z,87.80
2019-02-10T19:16:02.115Z,88.40
2019-02-10T19:18:32.275Z,87.40
2019-02-10T19:21:18.359Z,87.80
2019-02-10T19:23:57.543Z,88.20
2019-02-10T19:26:39.795Z,87.40
2019-02-10T19:29:22.208Z,87.80
2019-02-10T19:32:08.022Z,87.10
2019-02-10T19:34:38.163Z,86.30
2019-02-10T19:37:23.413Z,85.10
2019-02-10T19:40:02.641Z,85.30
2019-02-10T19:42:48.857Z,84.00
2019-02-10T19:45:34.216Z,84.70
2019-02-10T19:48:06.742Z,84.20
2019-02-10T19:50:40.215Z,84.50
2019-02-10T19:53:10.417Z,83.40
2019-02-10T19:55:56.883Z,83.40
2019-02-10T19:58:30.062Z,83.70
2019-02-10T20:01:18.449Z,82.90
2019-02-10T20:04:03.731Z,82.30
2019-02-10T20:06:33.906Z,82.70
2019-02-10T20:09:04.039Z,81.90
2019-02-10T20:11:34.277Z,81.90
2019-02-10T20:14:04.415Z,82.40
2019-02-10T20:16:37.429Z,82.20
2019-02-10T20:19:16.532Z,82.20
2019-02-10T20:21:56.026Z,82.00
2019-02-10T20:24:31.691Z,81.90
2019-02-10T20:27:04.636Z,82.20
2019-02-10T20:29:37.679Z,83.00
2019-02-10T20:32:13.862Z,82.60
2019-02-10T20:34:55.831Z,82.80
2019-02-10T20:37:26.343Z,98.60
2019-02-10T20:40:11.420Z,95.60
2019-02-10T20:42:47.247Z,95.80
2019-02-10T20:45:25.746Z,86.90
2019-02-10T20:47:58.845Z,85.30
2019-02-10T20:50:28.979Z,86.30
2019-02-10T20:53:05.508Z,87.60
2019-02-10T20:55:38.272Z,89.80
2019-02-10T20:58:17.428Z,90.20
2019-02-10T21:00:47.514Z,90.70
2019-02-10T21:03:17.612Z,91.30
2019-02-10T21:06:03.736Z,91.60
2019-02-10T21:08:36.798Z,91.80
2019-02-10T21:11:09.714Z,92.40
2019-02-10T21:13:48.596Z,92.90
2019-02-10T21:16:34.592Z,93.20
2019-02-10T21:19:07.581Z,93.40
2019-02-10T21:21:49.535Z,93.30
2019-02-10T21:24:25.469Z,93.60
2019-02-10T21:27:04.127Z,93.60
2019-02-10T21:29:49.979Z,93.70
2019-02-10T21:32:20.094Z,93.70
2019-02-10T21:34:56.215Z,93.50
2019-02-10T21:37:38.357Z,93.70
2019-02-10T21:40:09.924Z,93.30
2019-02-10T21:42:40.012Z,93.30
2019-02-10T21:45:10.187Z,93.40
2019-02-10T21:47:40.330Z,93.30
2019-02-10T21:50:08.834Z,93.30
2019-02-10T21:52:37.289Z,93.10
2019-02-10T21:55:07.905Z,93.00
2019-02-10T21:57:36.393Z,93.30
2019-02-10T22:00:11.137Z,93.00
2019-02-10T22:02:39.570Z,93.00
2019-02-10T22:05:09.719Z,93.00
2019-02-10T22:07:38.145Z,92.90
2019-02-10T22:10:12.727Z,92.60
2019-02-10T22:12:41.196Z,92.50
2019-02-10T22:15:10.645Z,92.40
2019-02-10T22:17:39.173Z,92.50
2019-02-10T22:20:10.525Z,92.50
2019-02-10T22:22:39.020Z,92.50
2019-02-10T22:25:10.081Z,92.40
2019-02-10T22:27:38.628Z,92.30
2019-02-10T22:30:16.636Z,92.40
2019-02-10T22:32:45.108Z,92.40
2019-02-10T22:35:13.593Z,92.50
2019-02-10T22:37:42.064Z,92.30
2019-02-10T22:40:11.901Z,92.10
2019-02-10T22:42:45.740Z,92.00
2019-02-10T22:45:13.786Z,92.00
2019-02-10T22:47:42.465Z,92.00
2019-02-10T22:50:13.392Z,91.90
2019-02-10T22:52:42.045Z,91.70
2019-02-10T22:55:10.648Z,91.70
2019-02-10T22:57:41.019Z,91.80
2019-02-10T23:00:17.003Z,91.60
2019-02-10T23:02:45.525Z,91.50
2019-02-10T23:05:13.949Z,91.30
2019-02-10T23:07:42.458Z,91.40
2019-02-10T23:10:10.880Z,91.20
2019-02-10T23:12:40.165Z,91.10
2019-02-10T23:15:08.658Z,91.10
2019-02-10T23:17:37.091Z,91.00
2019-02-10T23:20:06.620Z,90.90
2019-02-10T23:22:35.045Z,91.10
2019-02-10T23:25:03.563Z,91.10
2019-02-10T23:27:31.970Z,91.30
2019-02-10T23:30:00.411Z,91.30
2019-02-10T23:32:28.820Z,90.90
2019-02-10T23:34:57.258Z,90.90
2019-02-10T23:37:25.692Z,90.60
2019-02-10T23:39:54.121Z,90.10
2019-02-10T23:42:22.601Z,89.80
2019-02-10T23:44:51.089Z,89.30
2019-02-10T23:47:19.504Z,88.50
2019-02-10T23:49:47.936Z,87.60
2019-02-10T23:52:16.362Z,88.40
2019-02-10T23:54:44.798Z,87.90
2019-02-10T23:57:13.225Z,86.50
2019-02-10T23:59:41.681Z,86.30
